createdAt,value
2022-08-17T00:02:25.247Z,20.75
2022-08-17T00:04:55.359Z,21.23
2022-08-17T00:07:23.124Z,21.15
2022-08-17T00:09:50.323Z,22.48
2022-08-17T00:12:41.578Z,21.90
2022-08-17T00:15:06.295Z,20.65
2022-08-17T00:17:38.017Z,19.67
2022-08-17T00:20:05.710Z,21.35
2022-08-17T00:22:36.328Z,20.20
2022-08-17T00:25:12.043Z,21.50
2022-08-17T00:27:38.899Z,21.65
2022-08-17T00:30:08.693Z,21.58
2022-08-17T00:33:14.593Z,20.52
2022-08-17T00:35:34.450Z,19.60
2022-08-17T00:38:01.276Z,20.43
2022-08-17T00:40:40.804Z,20.63
2022-08-17T00:43:30.560Z,19.67
2022-08-17T00:45:58.357Z,19.63
2022-08-17T00:48:29.491Z,19.73
2022-08-17T00:51:15.085Z,20.97
2022-08-17T00:53:47.277Z,20.63
2022-08-17T00:56:20.974Z,19.35
2022-08-17T00:58:51.180Z,20.42
2022-08-17T01:01:21.299Z,19.55
2022-08-17T01:03:50.937Z,19.37
2022-08-17T01:06:18.381Z,20.15
2022-08-17T01:08:45.254Z,19.70
2022-08-17T01:11:12.033Z,19.40
2022-08-17T01:13:42.064Z,19.30
2022-08-17T01:16:21.454Z,18.33
2022-08-17T01:18:50.605Z,17.83
2022-08-17T01:21:46.836Z,18.40
2022-08-17T01:24:14.391Z,18.35
2022-08-17T01:26:43.285Z,17.65
2022-08-17T01:29:11.546Z,17.57
2022-08-17T01:31:52.444Z,17.48
2022-08-17T01:34:20.408Z,16.58
2022-08-17T01:36:48.934Z,16.05
2022-08-17T01:39:50.263Z,17.08
2022-08-17T01:42:36.308Z,17.63
2022-08-17T01:45:12.786Z,18.67
2022-08-17T01:47:41.607Z,18.45
2022-08-17T01:50:11.409Z,19.75
2022-08-17T01:52:39.317Z,19.70
2022-08-17T01:55:07.219Z,18.13
2022-08-17T01:57:34.211Z,20.00
2022-08-17T02:00:01.049Z,19.83
2022-08-17T02:02:30.283Z,19.58
2022-08-17T02:04:58.299Z,19.67
2022-08-17T02:07:26.908Z,20.50
2022-08-17T02:09:53.948Z,21.45
2022-08-17T02:12:37.802Z,21.88
2022-08-17T02:15:09.332Z,22.30
2022-08-17T02:17:36.191Z,23.02
2022-08-17T02:20:05.300Z,23.23
2022-08-17T02:22:32.502Z,22.25
2022-08-17T02:25:02.394Z,22.35
2022-08-17T02:27:29.886Z,23.08
2022-08-17T02:29:57.503Z,24.65
2022-08-17T02:32:27.850Z,23.93
2022-08-17T02:34:56.925Z,26.30
2022-08-17T02:37:24.232Z,25.85
2022-08-17T02:39:51.453Z,24.10
2022-08-17T02:42:18.452Z,25.83
2022-08-17T02:44:45.215Z,24.33
2022-08-17T02:47:12.708Z,23.70
2022-08-17T02:49:39.510Z,24.13
2022-08-17T02:52:07.711Z,24.67
2022-08-17T02:54:39.752Z,25.65
2022-08-17T02:57:09.842Z,25.53
2022-08-17T02:59:37.185Z,25.70
2022-08-17T03:02:05.809Z,24.77
2022-08-17T03:04:34.891Z,26.48
2022-08-17T03:07:03.087Z,25.02
2022-08-17T03:09:29.857Z,24.03
2022-08-17T03:12:09.427Z,25.17
2022-08-17T03:14:42.033Z,24.00
2022-08-17T03:17:11.210Z,24.83
2022-08-17T03:19:43.131Z,21.92
2022-08-17T03:22:47.910Z,24.37
2022-08-17T03:24:57.862Z,22.50
2022-08-17T03:27:25.033Z,22.05
2022-08-17T03:29:51.809Z,23.33
2022-08-17T03:32:20.561Z,24.95
2022-08-17T03:34:47.932Z,25.47
2022-08-17T03:37:15.109Z,22.88
2022-08-17T03:39:42.775Z,21.55
2022-08-17T03:42:32.246Z,21.08
2022-08-17T03:45:00.404Z,21.05
2022-08-17T03:47:45.893Z,19.87
2022-08-17T03:50:40.254Z,20.67
2022-08-17T03:53:33.396Z,19.27
2022-08-17T03:56:20.245Z,18.00
2022-08-17T03:58:47.437Z,18.10
2022-08-17T04:01:15.097Z,17.20
2022-08-17T04:03:41.888Z,17.05
2022-08-17T04:06:08.778Z,17.25
2022-08-17T04:08:35.959Z,16.60
2022-08-17T04:11:02.904Z,17.13
2022-08-17T04:13:29.673Z,17.70
2022-08-17T04:15:59.906Z,18.50
2022-08-17T04:18:26.674Z,19.20
2022-08-17T04:20:53.617Z,19.25
2022-08-17T04:23:20.495Z,16.90
2022-08-17T04:25:50.202Z,17.57
2022-08-17T04:28:18.936Z,17.27
2022-08-17T04:30:47.466Z,20.00
2022-08-17T04:33:20.125Z,19.38
2022-08-17T04:35:50.659Z,19.23
2022-08-17T04:38:20.470Z,20.27
2022-08-17T04:41:06.719Z,19.90
2022-08-17T04:43:34.497Z,20.17
2022-08-17T04:46:06.192Z,19.25
2022-08-17T04:48:39.737Z,25.38
2022-08-17T04:51:13.220Z,21.10
2022-08-17T04:53:42.467Z,20.35
2022-08-17T04:56:15.957Z,21.65
2022-08-17T04:58:49.822Z,20.10
2022-08-17T05:01:23.167Z,21.08
2022-08-17T05:03:56.218Z,19.63
2022-08-17T05:06:23.664Z,21.40
2022-08-17T05:08:50.530Z,20.50
2022-08-17T05:11:17.976Z,21.05
2022-08-17T05:13:44.828Z,20.42
2022-08-17T05:16:12.068Z,19.03
2022-08-17T05:18:39.084Z,20.73
2022-08-17T05:21:06.844Z,19.33
2022-08-17T05:23:42.098Z,20.17
2022-08-17T05:26:25.423Z,18.70
2022-08-17T05:28:54.549Z,19.53
2022-08-17T05:31:21.792Z,17.88
2022-08-17T05:33:49.483Z,17.13
2022-08-17T05:36:41.933Z,17.73
2022-08-17T05:39:03.777Z,16.58
2022-08-17T05:41:30.961Z,14.50
2022-08-17T05:43:57.758Z,12.73
2022-08-17T05:46:31.117Z,12.77
2022-08-17T05:49:02.667Z,11.25
2022-08-17T05:51:47.638Z,10.93
2022-08-17T05:54:33.225Z,9.87
2022-08-17T05:57:35.897Z,9.02
2022-08-17T06:00:20.777Z,8.90
2022-08-17T06:03:17.238Z,8.40
2022-08-17T06:05:57.723Z,7.80
2022-08-17T06:08:44.509Z,7.50
2022-08-17T06:11:39.180Z,7.13
2022-08-17T06:14:36.610Z,7.07
2022-08-17T06:17:08.677Z,6.85
2022-08-17T06:19:51.178Z,6.55
2022-08-17T06:22:21.950Z,6.90
2022-08-17T06:25:00.951Z,6.63
2022-08-17T06:27:48.829Z,6.45
2022-08-17T06:30:25.410Z,6.57
2022-08-17T06:32:55.150Z,6.90
2022-08-17T06:35:33.530Z,6.60
2022-08-17T06:38:33.963Z,6.68
2022-08-17T06:41:51.006Z,6.60
2022-08-17T06:44:43.356Z,6.63
2022-08-17T06:47:28.370Z,6.95
2022-08-17T06:50:27.332Z,6.80
2022-08-17T06:53:22.308Z,7.47
2022-08-17T06:56:01.154Z,6.80
2022-08-17T06:58:31.359Z,6.80
2022-08-17T07:01:03.907Z,7.22
2022-08-17T07:03:37.583Z,6.70
2022-08-17T07:06:14.076Z,6.95
2022-08-17T07:08:59.030Z,6.78
2022-08-17T07:11:41.693Z,7.45
2022-08-17T07:14:53.962Z,7.25
2022-08-17T07:17:36.995Z,7.10
2022-08-17T07:20:15.015Z,7.43
2022-08-17T07:23:00.007Z,7.90
2022-08-17T07:25:28.536Z,7.82
2022-08-17T07:28:00.221Z,7.60
2022-08-17T07:30:30.538Z,9.20
2022-08-17T07:33:20.111Z,9.45
2022-08-17T07:35:49.763Z,7.95
2022-08-17T07:38:25.941Z,9.00
2022-08-17T07:41:02.510Z,8.18
2022-08-17T07:43:31.649Z,8.10
2022-08-17T07:46:20.634Z,8.80
2022-08-17T07:48:51.440Z,9.02
2022-08-17T07:51:25.072Z,10.25
2022-08-17T07:53:54.161Z,9.40
2022-08-17T07:56:39.165Z,11.63
2022-08-17T07:59:09.553Z,11.57
2022-08-17T08:01:41.014Z,10.52
2022-08-17T08:04:19.533Z,10.15
2022-08-17T08:06:52.909Z,11.57
2022-08-17T08:09:36.361Z,11.13
2022-08-17T08:12:33.617Z,10.85
2022-08-17T08:15:18.905Z,12.07
2022-08-17T08:17:50.652Z,11.27
2022-08-17T08:20:35.057Z,11.23
2022-08-17T08:23:39.539Z,10.33
2022-08-17T08:26:18.887Z,11.00
2022-08-17T08:29:28.129Z,10.82
2022-08-17T08:32:03.929Z,9.98
2022-08-17T08:35:02.974Z,10.07
2022-08-17T08:37:47.341Z,10.43
2022-08-17T08:40:36.272Z,17.33
2022-08-17T08:43:10.093Z,10.23
2022-08-17T08:45:49.868Z,9.38
2022-08-17T08:48:53.141Z,8.73
2022-08-17T08:51:49.344Z,9.57
2022-08-17T08:54:35.460Z,9.05
2022-08-17T08:57:26.426Z,8.52
2022-08-17T09:00:15.399Z,8.55
2022-08-17T09:03:04.118Z,8.77
2022-08-17T09:06:03.608Z,7.90
2022-08-17T09:09:02.750Z,7.80
2022-08-17T09:12:01.211Z,8.35
2022-08-17T09:14:45.277Z,8.30
2022-08-17T09:17:29.796Z,8.05
2022-08-17T09:20:28.522Z,8.43
2022-08-17T09:23:32.430Z,8.10
2022-08-17T09:26:16.299Z,7.80
2022-08-17T09:28:49.498Z,7.90
2022-08-17T09:31:31.272Z,8.18
2022-08-17T09:34:02.548Z,7.57
2022-08-17T09:36:34.380Z,7.45
2022-08-17T09:39:13.107Z,8.48
2022-08-17T09:42:00.286Z,8.68
2022-08-17T09:44:47.138Z,8.30
2022-08-17T09:47:32.273Z,9.10
2022-08-17T09:51:04.285Z,8.32
2022-08-17T09:53:22.489Z,8.35
2022-08-17T09:56:01.251Z,8.52
2022-08-17T09:58:34.677Z,8.80
2022-08-17T10:01:14.010Z,8.00
2022-08-17T10:04:08.031Z,10.05
2022-08-17T10:07:06.197Z,9.43
2022-08-17T10:09:56.219Z,9.50
2022-08-17T10:12:36.632Z,8.30
2022-08-17T10:15:56.954Z,8.33
2022-08-17T10:19:02.004Z,8.85
2022-08-17T10:22:01.182Z,7.43
2022-08-17T10:25:21.525Z,7.90
2022-08-17T10:27:52.585Z,7.68
2022-08-17T10:30:23.157Z,8.23
2022-08-17T10:33:04.166Z,8.52
2022-08-17T10:35:36.979Z,7.82
2022-08-17T10:38:25.573Z,8.05
2022-08-17T10:41:05.896Z,8.07
2022-08-17T10:44:35.428Z,9.00
2022-08-17T10:47:11.601Z,8.00
2022-08-17T10:49:53.900Z,8.13
2022-08-17T10:52:21.881Z,8.27
2022-08-17T10:54:50.785Z,8.57
2022-08-17T10:57:39.730Z,8.20
2022-08-17T11:00:25.537Z,7.82
2022-08-17T11:02:55.742Z,9.48
2022-08-17T11:05:48.761Z,8.05
2022-08-17T11:08:57.461Z,9.00
2022-08-17T11:12:01.490Z,9.77
2022-08-17T11:14:49.681Z,8.98
2022-08-17T11:17:41.354Z,9.40
2022-08-17T11:20:13.749Z,8.77
2022-08-17T11:23:04.633Z,9.32
2022-08-17T11:25:56.321Z,9.67
2022-08-17T11:28:34.437Z,9.27
2022-08-17T11:31:23.686Z,16.40
2022-08-17T11:34:22.253Z,11.27
2022-08-17T11:37:02.035Z,12.25
2022-08-17T11:39:50.637Z,10.17
2022-08-17T11:42:26.651Z,9.68
2022-08-17T11:45:32.460Z,9.85
2022-08-17T11:48:50.312Z,10.00
2022-08-17T11:51:34.658Z,10.10
2022-08-17T11:54:34.658Z,10.60
2022-08-17T11:57:26.036Z,11.10
2022-08-17T11:59:58.435Z,13.50
2022-08-17T12:02:34.957Z,12.73
2022-08-17T12:05:17.231Z,11.93
2022-08-17T12:08:05.530Z,12.37
2022-08-17T12:10:36.329Z,12.07
2022-08-17T12:13:13.022Z,11.88
2022-08-17T12:15:48.577Z,12.10
2022-08-17T12:18:28.371Z,12.57
2022-08-17T12:21:27.411Z,11.40
2022-08-17T12:23:59.928Z,12.32
2022-08-17T12:26:31.584Z,12.75
2022-08-17T12:29:05.090Z,12.65
2022-08-17T12:31:36.598Z,12.75
2022-08-17T12:34:04.968Z,14.00
2022-08-17T12:36:33.098Z,13.63
2022-08-17T12:39:12.865Z,14.95
2022-08-17T12:41:45.005Z,14.73
2022-08-17T12:44:12.229Z,13.68
2022-08-17T12:46:53.115Z,15.40
2022-08-17T12:49:24.187Z,15.23
2022-08-17T12:52:02.475Z,14.52
2022-08-17T12:54:53.395Z,16.48
2022-08-17T12:57:26.068Z,16.52
2022-08-17T13:00:00.828Z,16.30
2022-08-17T13:02:47.750Z,16.63
2022-08-17T13:05:29.504Z,15.32
2022-08-17T13:07:59.033Z,17.33
2022-08-17T13:10:33.554Z,16.55
2022-08-17T13:13:05.905Z,16.23
2022-08-17T13:15:44.872Z,17.30
2022-08-17T13:18:38.794Z,18.10
2022-08-17T13:21:18.898Z,18.73
2022-08-17T13:24:06.884Z,18.90
2022-08-17T13:26:44.715Z,19.17
2022-08-17T13:29:25.788Z,18.02
2022-08-17T13:32:17.438Z,18.83
2022-08-17T13:35:15.536Z,19.50
2022-08-17T13:38:01.344Z,19.38
2022-08-17T13:40:50.346Z,20.03
2022-08-17T13:43:40.934Z,20.35
2022-08-17T13:46:11.336Z,19.50
2022-08-17T13:48:38.283Z,20.00
2022-08-17T13:51:28.084Z,21.08
2022-08-17T13:54:00.571Z,20.93
2022-08-17T13:56:38.329Z,19.85
2022-08-17T13:59:16.083Z,20.15
2022-08-17T14:01:51.061Z,20.40
2022-08-17T14:04:27.898Z,21.83
2022-08-17T14:07:01.742Z,21.53
2022-08-17T14:09:37.188Z,20.77
2022-08-17T14:12:09.270Z,21.95
2022-08-17T14:14:36.363Z,21.52
2022-08-17T14:17:03.490Z,20.80
2022-08-17T14:19:30.282Z,19.80
2022-08-17T14:21:59.745Z,19.63
2022-08-17T14:24:29.901Z,18.63
2022-08-17T14:26:58.259Z,18.48
2022-08-17T14:29:27.913Z,18.50
2022-08-17T14:31:55.991Z,20.13
2022-08-17T14:34:23.973Z,17.55
2022-08-17T14:36:51.750Z,18.58
2022-08-17T14:39:20.698Z,17.75
2022-08-17T14:41:47.905Z,18.02
2022-08-17T14:44:15.496Z,17.47
2022-08-17T14:46:44.232Z,17.75
2022-08-17T14:49:12.880Z,17.77
2022-08-17T14:51:44.234Z,17.05
2022-08-17T14:54:33.203Z,16.08
2022-08-17T14:57:23.153Z,16.77
2022-08-17T14:59:48.883Z,16.90
2022-08-17T15:02:17.573Z,16.67
2022-08-17T15:04:47.610Z,17.83
2022-08-17T15:07:15.292Z,16.08
2022-08-17T15:09:42.044Z,17.17
2022-08-17T15:12:18.010Z,17.70
2022-08-17T15:14:44.782Z,23.05
2022-08-17T15:17:11.631Z,18.55
2022-08-17T15:19:38.397Z,17.58
2022-08-17T15:22:06.778Z,17.73
2022-08-17T15:24:33.674Z,17.70
2022-08-17T15:27:00.459Z,16.15
2022-08-17T15:29:27.225Z,17.92
2022-08-17T15:31:58.656Z,15.70
2022-08-17T15:34:27.246Z,17.50
2022-08-17T15:36:54.050Z,16.10
2022-08-17T15:39:22.065Z,17.02
2022-08-17T15:41:58.442Z,15.63
2022-08-17T15:44:32.657Z,16.45
2022-08-17T15:47:02.198Z,18.63
2022-08-17T15:49:28.982Z,19.17
2022-08-17T15:51:55.836Z,19.85
2022-08-17T15:54:23.451Z,19.30
2022-08-17T15:56:50.604Z,18.50
2022-08-17T15:59:17.490Z,20.87
2022-08-17T16:03:13.108Z,18.77
2022-08-17T16:04:31.784Z,19.00
2022-08-17T16:06:59.881Z,19.02
2022-08-17T16:09:27.471Z,19.88
2022-08-17T16:11:55.891Z,18.03
2022-08-17T16:14:32.391Z,18.40
2022-08-17T16:17:02.178Z,17.88
2022-08-17T16:19:29.080Z,18.02
2022-08-17T16:21:55.912Z,18.90
2022-08-17T16:24:22.736Z,18.63
2022-08-17T16:26:49.616Z,18.27
2022-08-17T16:29:16.665Z,18.92
2022-08-17T16:31:43.645Z,19.10
2022-08-17T16:34:17.744Z,18.08
2022-08-17T16:36:55.779Z,18.70
2022-08-17T16:39:28.897Z,18.58
2022-08-17T16:41:56.721Z,17.50
2022-08-17T16:44:23.689Z,17.55
2022-08-17T16:46:50.707Z,18.85
2022-08-17T16:49:35.657Z,19.37
2022-08-17T16:52:10.674Z,18.58
2022-08-17T16:54:41.765Z,18.65
2022-08-17T16:57:09.093Z,17.77
2022-08-17T16:59:41.138Z,18.60
2022-08-17T17:02:16.270Z,16.33
2022-08-17T17:04:55.633Z,17.88
2022-08-17T17:07:39.890Z,18.40
2022-08-17T17:10:46.577Z,18.05
2022-08-17T17:13:20.706Z,17.52
2022-08-17T17:15:59.349Z,21.73
2022-08-17T17:18:42.047Z,18.55
2022-08-17T17:21:14.144Z,22.85
2022-08-17T17:23:59.659Z,18.48
2022-08-17T17:26:56.503Z,18.48
2022-08-17T17:29:48.775Z,19.10
2022-08-17T17:32:44.596Z,18.25
2022-08-17T17:35:33.341Z,17.63
2022-08-17T17:38:28.975Z,17.83
2022-08-17T17:41:02.993Z,20.15
2022-08-17T17:43:40.608Z,17.60
2022-08-17T17:46:27.192Z,18.33
2022-08-17T17:48:56.694Z,17.02
2022-08-17T17:52:06.484Z,18.02
2022-08-17T17:54:55.570Z,17.83
2022-08-17T17:57:33.955Z,17.67
2022-08-17T18:00:33.048Z,17.85
2022-08-17T18:03:17.624Z,17.02
2022-08-17T18:06:02.921Z,18.70
2022-08-17T18:09:02.121Z,18.67
2022-08-17T18:11:53.911Z,20.83
2022-08-17T18:14:59.697Z,21.35
2022-08-17T18:17:29.149Z,19.52
2022-08-17T18:19:56.620Z,21.15
2022-08-17T18:22:24.497Z,23.55
2022-08-17T18:24:56.402Z,22.23
2022-08-17T18:27:33.510Z,21.10
2022-08-17T18:30:09.051Z,21.80
2022-08-17T18:32:42.447Z,22.45
2022-08-17T18:35:09.185Z,22.98
2022-08-17T18:37:47.485Z,22.13
2022-08-17T18:40:17.586Z,21.83
2022-08-17T18:42:55.137Z,20.98
2022-08-17T18:45:48.931Z,21.70
2022-08-17T18:48:36.718Z,25.13
2022-08-17T18:51:40.718Z,23.23
2022-08-17T18:54:19.267Z,22.75
2022-08-17T18:56:50.669Z,20.75
2022-08-17T18:59:26.994Z,22.23
2022-08-17T19:01:59.165Z,22.92
2022-08-17T19:04:36.105Z,20.43
2022-08-17T19:07:23.701Z,20.40
2022-08-17T19:10:17.442Z,20.08
2022-08-17T19:12:50.315Z,18.75
2022-08-17T19:15:24.707Z,18.35
2022-08-17T19:18:00.236Z,16.40
2022-08-17T19:20:34.340Z,20.13
2022-08-17T19:23:29.220Z,18.55
2022-08-17T19:25:59.188Z,19.52
2022-08-17T19:28:48.461Z,18.90
2022-08-17T19:31:28.620Z,18.47
2022-08-17T19:33:56.912Z,18.02
2022-08-17T19:36:32.608Z,19.08
2022-08-17T19:39:18.313Z,16.48
2022-08-17T19:41:58.006Z,18.08
2022-08-17T19:44:59.642Z,16.93
2022-08-17T19:47:55.356Z,16.73
2022-08-17T19:50:41.325Z,14.35
2022-08-17T19:53:54.127Z,15.18
2022-08-17T19:56:33.751Z,15.40
2022-08-17T19:59:22.612Z,17.33
2022-08-17T20:02:02.892Z,18.50
2022-08-17T20:04:31.741Z,16.52
2022-08-17T20:07:08.140Z,16.25
2022-08-17T20:09:57.803Z,19.52
2022-08-17T20:12:29.287Z,18.83
2022-08-17T20:15:02.911Z,18.27
2022-08-17T20:17:37.297Z,17.20
2022-08-17T20:20:20.356Z,17.45
2022-08-17T20:22:58.779Z,18.08
2022-08-17T20:25:31.721Z,18.67
2022-08-17T20:28:17.270Z,17.67
2022-08-17T20:30:44.648Z,17.08
2022-08-17T20:33:28.479Z,18.48
2022-08-17T20:36:19.883Z,19.83
2022-08-17T20:38:51.633Z,20.77
2022-08-17T20:41:22.534Z,20.27
2022-08-17T20:43:51.387Z,20.63
2022-08-17T20:46:24.778Z,20.38
2022-08-17T20:48:56.798Z,20.38
2022-08-17T20:51:28.538Z,21.00
2022-08-17T20:53:55.742Z,21.33
2022-08-17T20:56:41.021Z,21.63
2022-08-17T20:59:07.786Z,22.92
2022-08-17T21:01:40.033Z,21.25
2022-08-17T21:04:27.750Z,20.83
2022-08-17T21:07:25.104Z,19.40
2022-08-17T21:09:52.363Z,20.60
2022-08-17T21:12:42.579Z,21.30
2022-08-17T21:15:31.000Z,19.58
2022-08-17T21:18:28.337Z,19.63
2022-08-17T21:21:17.784Z,20.25
2022-08-17T21:24:22.505Z,20.20
2022-08-17T21:27:20.952Z,20.80
2022-08-17T21:30:14.157Z,18.70
2022-08-17T21:32:44.068Z,18.77
2022-08-17T21:35:10.967Z,19.73
2022-08-17T21:37:40.276Z,18.65
2022-08-17T21:40:18.469Z,19.42
2022-08-17T21:42:52.679Z,20.02
2022-08-17T21:45:35.482Z,18.33
2022-08-17T21:48:19.555Z,19.92
2022-08-17T21:51:00.813Z,19.48
2022-08-17T21:53:58.644Z,19.23
2022-08-17T21:56:38.640Z,19.38
2022-08-17T21:59:14.806Z,18.90
2022-08-17T22:01:43.015Z,15.30
2022-08-17T22:04:12.626Z,17.80
2022-08-17T22:06:56.760Z,18.73
2022-08-17T22:09:32.042Z,17.80
2022-08-17T22:12:17.652Z,20.03
2022-08-17T22:15:06.013Z,17.05
2022-08-17T22:17:46.335Z,18.10
2022-08-17T22:20:19.049Z,19.25
2022-08-17T22:23:04.346Z,18.65
2022-08-17T22:25:34.055Z,17.53
2022-08-17T22:28:06.605Z,16.73
2022-08-17T22:30:37.653Z,16.88
2022-08-17T22:33:34.773Z,16.00
2022-08-17T22:36:13.461Z,16.63
2022-08-17T22:38:41.741Z,17.70
2022-08-17T22:41:27.768Z,14.90
2022-08-17T22:43:57.315Z,15.13
2022-08-17T22:46:25.550Z,17.10
2022-08-17T22:48:56.722Z,14.27
2022-08-17T22:51:27.978Z,16.03
2022-08-17T22:54:20.233Z,15.93
2022-08-17T22:57:18.969Z,14.30
2022-08-17T22:59:55.158Z,15.10
2022-08-17T23:02:26.165Z,14.77
2022-08-17T23:05:16.594Z,13.83
2022-08-17T23:07:47.144Z,15.10
2022-08-17T23:10:14.686Z,15.93
2022-08-17T23:12:41.752Z,15.20
2022-08-17T23:15:15.802Z,14.80
2022-08-17T23:17:45.371Z,13.10
2022-08-17T23:20:14.984Z,15.13
2022-08-17T23:22:51.522Z,14.02
2022-08-17T23:25:27.820Z,13.98
2022-08-17T23:27:55.289Z,14.80
2022-08-17T23:30:25.308Z,15.23
2022-08-17T23:32:54.275Z,14.95
2022-08-17T23:35:39.616Z,14.43
2022-08-17T23:38:12.242Z,14.98
2022-08-17T23:40:40.062Z,13.88
2022-08-17T23:43:11.499Z,14.47
2022-08-17T23:45:50.585Z,14.02
2022-08-17T23:48:27.806Z,14.80
2022-08-17T23:51:09.570Z,14.60
2022-08-17T23:53:37.147Z,14.95
2022-08-17T23:56:09.225Z,15.67
2022-08-17T23:58:38.408Z,16.08
